createdAt,value
2023-03-15T00:00:55.330Z,80.34
2023-03-15T00:03:24.530Z,82.17
2023-03-15T00:05:52.441Z,83.50
2023-03-15T00:08:19.582Z,82.94
2023-03-15T00:10:47.591Z,83.23
2023-03-15T00:13:15.913Z,83.29
2023-03-15T00:15:48.382Z,83.88
2023-03-15T00:18:16.185Z,84.16
2023-03-15T00:20:42.959Z,83.60
2023-03-15T00:23:09.945Z,82.35
2023-03-15T00:25:37.186Z,82.96
2023-03-15T00:28:04.197Z,82.48
2023-03-15T00:30:32.603Z,82.49
2023-03-15T00:32:59.385Z,81.76
2023-03-15T00:35:26.120Z,81.84
2023-03-15T00:37:56.966Z,82.15
2023-03-15T00:40:24.821Z,81.50
2023-03-15T00:42:52.355Z,82.37
2023-03-15T00:45:22.237Z,84.07
2023-03-15T00:47:50.393Z,83.58
2023-03-15T00:50:17.249Z,83.19
2023-03-15T00:52:44.342Z,83.15
2023-03-15T00:55:15.019Z,82.44
2023-03-15T00:57:44.211Z,81.76
2023-03-15T01:00:20.265Z,82.34
2023-03-15T01:02:47.581Z,82.86
2023-03-15T01:05:15.585Z,82.81
2023-03-15T01:07:45.637Z,83.04
2023-03-15T01:10:14.510Z,81.66
2023-03-15T01:12:41.856Z,82.48
2023-03-15T01:15:13.296Z,83.89
2023-03-15T01:17:41.246Z,82.91
2023-03-15T01:20:09.230Z,82.04
2023-03-15T01:22:36.060Z,82.01
2023-03-15T01:25:02.943Z,82.14
2023-03-15T01:27:29.800Z,82.77
2023-03-15T01:29:56.684Z,82.73
2023-03-15T01:32:23.635Z,84.53
2023-03-15T01:34:50.667Z,83.89
2023-03-15T01:37:17.448Z,81.67
2023-03-15T01:39:45.425Z,82.74
2023-03-15T01:42:12.370Z,82.19
2023-03-15T01:44:49.511Z,81.68
2023-03-15T01:47:16.954Z,83.46
2023-03-15T01:49:47.062Z,83.19
2023-03-15T01:52:17.907Z,82.78
2023-03-15T01:55:05.107Z,82.68
2023-03-15T01:57:41.620Z,81.87
2023-03-15T02:00:13.940Z,83.39
2023-03-15T02:02:58.528Z,82.51
2023-03-15T02:05:33.729Z,83.97
2023-03-15T02:08:06.219Z,85.91
2023-03-15T02:10:40.670Z,84.62
2023-03-15T02:13:08.746Z,83.44
2023-03-15T02:15:35.704Z,82.19
2023-03-15T02:18:05.492Z,80.50
2023-03-15T02:20:43.997Z,81.14
2023-03-15T02:23:17.176Z,79.74
2023-03-15T02:25:59.153Z,81.03
2023-03-15T02:28:28.710Z,80.14
2023-03-15T02:30:55.806Z,80.22
2023-03-15T02:33:29.309Z,82.11
2023-03-15T02:36:06.632Z,81.93
2023-03-15T02:38:33.290Z,81.60
2023-03-15T02:41:00.622Z,81.31
2023-03-15T02:43:30.652Z,82.43
2023-03-15T02:45:59.036Z,82.88
2023-03-15T02:48:26.448Z,82.62
2023-03-15T02:50:53.201Z,82.33
2023-03-15T02:53:20.134Z,83.42
2023-03-15T02:55:46.948Z,81.27
2023-03-15T02:58:13.645Z,84.52
2023-03-15T03:00:40.653Z,84.23
2023-03-15T03:03:08.898Z,82.54
2023-03-15T03:05:35.709Z,83.29
2023-03-15T03:08:02.896Z,81.83
2023-03-15T03:10:30.102Z,81.72
2023-03-15T03:12:58.262Z,82.37
2023-03-15T03:15:34.727Z,83.38
2023-03-15T03:18:01.752Z,83.05
2023-03-15T03:20:29.051Z,81.51
2023-03-15T03:22:56.374Z,82.52
2023-03-15T03:25:27.286Z,80.34
2023-03-15T03:27:57.453Z,80.47
2023-03-15T03:30:27.180Z,81.50
2023-03-15T03:32:54.014Z,83.52
2023-03-15T03:35:21.373Z,84.04
2023-03-15T03:37:48.206Z,83.74
2023-03-15T03:40:20.188Z,84.32
2023-03-15T03:42:47.444Z,84.10
2023-03-15T03:45:17.864Z,83.51
2023-03-15T03:47:48.211Z,83.37
2023-03-15T03:50:15.199Z,81.79
2023-03-15T03:52:43.927Z,81.81
2023-03-15T03:55:17.222Z,81.51
2023-03-15T03:57:44.236Z,81.51
2023-03-15T04:00:19.157Z,80.57
2023-03-15T04:02:46.141Z,81.23
2023-03-15T04:05:15.160Z,80.48
2023-03-15T04:07:42.672Z,78.72
2023-03-15T04:10:16.554Z,80.15
2023-03-15T04:12:47.782Z,79.59
2023-03-15T04:15:15.176Z,79.82
2023-03-15T04:17:42.317Z,78.88
2023-03-15T04:20:12.107Z,79.61
2023-03-15T04:22:42.357Z,78.04
2023-03-15T04:25:29.372Z,76.76
2023-03-15T04:28:10.725Z,76.42
2023-03-15T04:30:42.816Z,76.78
2023-03-15T04:33:29.785Z,76.43
2023-03-15T04:36:19.017Z,76.92
2023-03-15T04:39:06.104Z,76.34
2023-03-15T04:41:51.694Z,76.46
2023-03-15T04:44:33.525Z,77.28
2023-03-15T04:47:00.599Z,78.83
2023-03-15T04:49:50.480Z,78.77
2023-03-15T04:52:36.393Z,79.10
2023-03-15T04:55:23.169Z,77.40
2023-03-15T04:58:15.683Z,77.62
2023-03-15T05:01:02.682Z,77.03
2023-03-15T05:03:55.010Z,74.70
2023-03-15T05:06:32.474Z,73.11
2023-03-15T05:09:06.722Z,75.02
2023-03-15T05:11:33.586Z,75.91
2023-03-15T05:14:06.316Z,75.44
2023-03-15T05:17:00.048Z,75.06
2023-03-15T05:19:46.411Z,75.18
2023-03-15T05:22:31.202Z,75.59
2023-03-15T05:25:15.551Z,75.60
2023-03-15T05:28:08.912Z,75.43
2023-03-15T05:30:54.493Z,75.39
2023-03-15T05:33:46.824Z,74.74
2023-03-15T05:36:31.295Z,75.11
2023-03-15T05:39:24.758Z,75.36
2023-03-15T05:42:09.643Z,75.01
2023-03-15T05:44:39.435Z,74.53
2023-03-15T05:47:34.192Z,74.39
2023-03-15T05:50:28.037Z,74.49
2023-03-15T05:53:13.489Z,75.32
2023-03-15T05:56:00.783Z,73.25
2023-03-15T05:59:02.939Z,72.31
2023-03-15T06:02:07.106Z,73.26
2023-03-15T06:04:51.970Z,74.52
2023-03-15T06:07:22.694Z,74.69
2023-03-15T06:09:49.576Z,74.44
2023-03-15T06:12:16.372Z,74.08
2023-03-15T06:14:43.619Z,74.85
2023-03-15T06:17:11.819Z,73.78
2023-03-15T06:19:40.456Z,71.82
2023-03-15T06:22:07.355Z,74.26
2023-03-15T06:24:42.332Z,72.59
2023-03-15T06:27:09.130Z,73.49
2023-03-15T06:29:36.357Z,74.83
2023-03-15T06:32:04.440Z,70.96
2023-03-15T06:34:32.941Z,72.84
2023-03-15T06:36:59.793Z,72.06
2023-03-15T06:39:26.602Z,71.23
2023-03-15T06:41:54.076Z,70.69
2023-03-15T06:44:22.381Z,71.05
2023-03-15T06:46:54.661Z,73.02
2023-03-15T06:49:21.526Z,71.15
2023-03-15T06:51:48.975Z,72.89
2023-03-15T06:54:15.770Z,73.42
2023-03-15T06:56:43.414Z,73.59
2023-03-15T06:59:10.360Z,72.09
2023-03-15T07:01:37.112Z,71.20
2023-03-15T07:04:03.980Z,70.13
2023-03-15T07:06:30.728Z,71.58
2023-03-15T07:08:57.571Z,69.18
2023-03-15T07:11:24.383Z,68.89
2023-03-15T07:13:51.146Z,66.88
2023-03-15T07:16:18.047Z,62.95
2023-03-15T07:18:44.938Z,62.37
2023-03-15T07:21:11.674Z,54.59
2023-03-15T07:23:38.529Z,57.70
2023-03-15T07:26:05.343Z,58.35
2023-03-15T07:28:32.111Z,58.51
2023-03-15T07:31:01.891Z,58.47
2023-03-15T07:33:30.960Z,56.41
2023-03-15T07:35:57.834Z,57.13
2023-03-15T07:38:28.926Z,59.76
2023-03-15T07:40:58.563Z,61.23
2023-03-15T07:43:25.324Z,59.44
2023-03-15T07:46:05.460Z,58.15
2023-03-15T07:48:32.189Z,56.29
2023-03-15T07:50:59.292Z,56.93
2023-03-15T07:53:26.329Z,56.41
2023-03-15T07:55:53.727Z,58.45
2023-03-15T07:58:20.697Z,61.76
2023-03-15T08:00:47.851Z,63.33
2023-03-15T08:03:14.807Z,64.08
2023-03-15T08:05:41.627Z,61.91
2023-03-15T08:08:08.575Z,60.16
2023-03-15T08:10:35.325Z,56.76
2023-03-15T08:13:02.266Z,56.16
2023-03-15T08:15:29.121Z,53.24
2023-03-15T08:17:55.854Z,46.32
2023-03-15T08:20:22.620Z,48.33
2023-03-15T08:22:51.568Z,40.10
2023-03-15T08:25:21.382Z,34.99
2023-03-15T08:27:48.447Z,30.62
2023-03-15T08:30:16.674Z,29.24
2023-03-15T08:32:45.839Z,29.16
2023-03-15T08:35:15.599Z,30.17
2023-03-15T08:37:47.953Z,28.47
2023-03-15T08:40:16.491Z,29.28
2023-03-15T08:42:43.246Z,27.90
2023-03-15T08:45:11.422Z,28.45
2023-03-15T08:47:38.455Z,26.95
2023-03-15T08:50:08.372Z,28.49
2023-03-15T08:52:35.628Z,27.53
2023-03-15T08:55:04.970Z,26.75
2023-03-15T08:57:33.367Z,23.47
2023-03-15T09:00:01.847Z,25.64
2023-03-15T09:02:29.187Z,24.31
2023-03-15T09:04:56.036Z,25.45
2023-03-15T09:07:22.862Z,24.10
2023-03-15T09:09:49.858Z,21.36
2023-03-15T09:12:17.700Z,22.37
2023-03-15T09:14:44.643Z,23.28
2023-03-15T09:17:11.848Z,24.00
2023-03-15T09:19:39.691Z,21.73
2023-03-15T09:22:16.505Z,21.19
2023-03-15T09:24:52.612Z,22.26
2023-03-15T09:27:19.456Z,24.55
2023-03-15T09:29:46.350Z,25.74
2023-03-15T09:32:13.515Z,22.54
2023-03-15T09:34:42.279Z,21.96
2023-03-15T09:37:09.953Z,23.29
2023-03-15T09:39:37.083Z,25.36
2023-03-15T09:42:12.306Z,23.38
2023-03-15T09:44:56.168Z,22.34
2023-03-15T09:47:57.104Z,19.83
2023-03-15T09:50:32.588Z,18.08
2023-03-15T09:53:19.047Z,17.99
2023-03-15T09:55:48.665Z,18.16
2023-03-15T09:58:24.392Z,17.22
2023-03-15T10:00:54.559Z,17.70
2023-03-15T10:03:50.320Z,16.45
2023-03-15T10:06:24.402Z,18.27
2023-03-15T10:08:56.895Z,16.22
2023-03-15T10:11:34.961Z,16.42
2023-03-15T10:14:09.288Z,16.06
2023-03-15T10:16:41.834Z,15.79
2023-03-15T10:19:17.642Z,17.69
2023-03-15T10:22:21.684Z,17.05
2023-03-15T10:25:10.032Z,17.22
2023-03-15T10:28:17.121Z,20.30
2023-03-15T10:30:49.310Z,16.02
2023-03-15T10:33:30.513Z,17.16
2023-03-15T10:36:07.843Z,14.94
2023-03-15T10:38:38.777Z,17.72
2023-03-15T10:41:06.908Z,18.28
2023-03-15T10:43:37.465Z,16.21
2023-03-15T10:46:21.444Z,16.09
2023-03-15T10:48:58.654Z,18.51
2023-03-15T10:51:29.563Z,17.23
2023-03-15T10:53:58.702Z,15.10
2023-03-15T10:56:37.461Z,17.78
2023-03-15T10:59:16.426Z,19.57
2023-03-15T11:01:48.212Z,16.78
2023-03-15T11:04:32.031Z,16.91
2023-03-15T11:07:03.231Z,16.24
2023-03-15T11:09:54.668Z,17.47
2023-03-15T11:12:29.168Z,17.72
2023-03-15T11:15:04.584Z,18.41
2023-03-15T11:17:34.830Z,17.99
2023-03-15T11:20:20.551Z,15.60
2023-03-15T11:22:47.321Z,16.64
2023-03-15T11:25:15.861Z,20.51
2023-03-15T11:27:44.955Z,17.93
2023-03-15T11:30:17.097Z,15.87
2023-03-15T11:32:46.554Z,17.54
2023-03-15T11:35:19.553Z,17.84
2023-03-15T11:38:14.517Z,16.25
2023-03-15T11:40:50.945Z,18.76
2023-03-15T11:43:21.108Z,18.95
2023-03-15T11:45:59.020Z,19.95
2023-03-15T11:48:50.421Z,18.47
2023-03-15T11:51:17.597Z,17.20
2023-03-15T11:53:56.176Z,17.61
2023-03-15T11:56:28.761Z,16.92
2023-03-15T11:59:06.374Z,17.74
2023-03-15T12:01:34.782Z,16.05
2023-03-15T12:04:32.545Z,16.03
2023-03-15T12:07:04.800Z,16.94
2023-03-15T12:09:37.556Z,18.69
2023-03-15T12:12:30.416Z,18.86
2023-03-15T12:15:37.964Z,20.84
2023-03-15T12:18:06.999Z,18.69
2023-03-15T12:20:39.310Z,16.86
2023-03-15T12:23:18.028Z,17.19
2023-03-15T12:25:56.085Z,20.79
2023-03-15T12:28:31.702Z,19.52
2023-03-15T12:31:02.323Z,22.19
2023-03-15T12:33:31.586Z,19.69
2023-03-15T12:36:08.329Z,20.06
2023-03-15T12:38:42.051Z,17.34
2023-03-15T12:41:30.101Z,17.76
2023-03-15T12:44:19.410Z,17.81
2023-03-15T12:46:46.212Z,18.22
2023-03-15T12:49:14.049Z,17.82
2023-03-15T12:51:59.408Z,16.59
2023-03-15T12:54:43.283Z,18.12
2023-03-15T12:57:15.515Z,18.39
2023-03-15T12:59:54.547Z,15.82
2023-03-15T13:02:43.871Z,15.73
2023-03-15T13:05:45.221Z,17.02
2023-03-15T13:08:38.613Z,17.40
2023-03-15T13:11:27.423Z,15.61
2023-03-15T13:13:57.254Z,19.07
2023-03-15T13:16:30.890Z,17.98
2023-03-15T13:19:00.939Z,15.83
2023-03-15T13:21:48.696Z,15.50
2023-03-15T13:24:26.508Z,16.26
2023-03-15T13:27:02.209Z,17.17
2023-03-15T13:29:33.595Z,17.39
2023-03-15T13:32:08.630Z,17.83
2023-03-15T13:34:35.852Z,18.16
2023-03-15T13:37:02.746Z,16.58
2023-03-15T13:39:33.212Z,18.24
2023-03-15T13:42:18.448Z,20.91
2023-03-15T13:44:45.596Z,17.30
2023-03-15T13:47:24.465Z,17.79
2023-03-15T13:49:54.924Z,17.29
2023-03-15T13:52:22.895Z,19.70
2023-03-15T13:54:53.880Z,19.30
2023-03-15T13:57:23.657Z,18.76
2023-03-15T14:00:02.496Z,18.31
2023-03-15T14:02:45.997Z,19.03
2023-03-15T14:05:27.573Z,20.05
2023-03-15T14:08:06.716Z,19.98
2023-03-15T14:10:33.707Z,19.58
2023-03-15T14:13:27.711Z,19.11
2023-03-15T14:16:08.038Z,17.63
2023-03-15T14:18:35.090Z,19.22
2023-03-15T14:21:07.666Z,20.73
2023-03-15T14:23:53.463Z,19.56
2023-03-15T14:26:27.908Z,18.39
2023-03-15T14:29:02.383Z,19.05
2023-03-15T14:31:34.743Z,18.93
2023-03-15T14:34:09.858Z,19.71
2023-03-15T14:36:43.427Z,19.64
2023-03-15T14:39:28.801Z,19.80
2023-03-15T14:41:55.968Z,18.90
2023-03-15T14:44:25.119Z,18.05
2023-03-15T14:46:53.053Z,17.70
2023-03-15T14:49:25.320Z,17.20
2023-03-15T14:51:56.093Z,19.03
2023-03-15T14:54:22.927Z,18.80
2023-03-15T14:56:49.744Z,17.40
2023-03-15T14:59:16.641Z,18.40
2023-03-15T15:01:49.287Z,18.23
2023-03-15T15:04:17.236Z,18.28
2023-03-15T15:06:51.559Z,18.08
2023-03-15T15:09:26.348Z,18.45
2023-03-15T15:11:54.032Z,17.47
2023-03-15T15:14:22.153Z,19.26
2023-03-15T15:16:58.906Z,20.11
2023-03-15T15:19:29.003Z,18.18
2023-03-15T15:21:56.519Z,18.08
2023-03-15T15:24:26.637Z,17.36
2023-03-15T15:26:53.630Z,17.71
2023-03-15T15:29:20.887Z,18.55
2023-03-15T15:31:47.971Z,17.21
2023-03-15T15:34:14.810Z,18.34
2023-03-15T15:36:44.163Z,18.09
2023-03-15T15:39:20.640Z,19.35
2023-03-15T15:41:48.086Z,20.16
2023-03-15T15:44:17.667Z,18.17
2023-03-15T15:46:45.072Z,17.86
2023-03-15T15:49:12.757Z,18.59
2023-03-15T15:51:48.997Z,18.77
2023-03-15T15:54:18.875Z,19.23
2023-03-15T15:56:55.622Z,18.76
2023-03-15T15:59:25.653Z,20.39
2023-03-15T16:02:00.714Z,19.04
2023-03-15T16:04:29.523Z,18.53
2023-03-15T16:07:00.167Z,19.75
2023-03-15T16:09:30.188Z,19.25
2023-03-15T16:11:57.317Z,20.03
2023-03-15T16:14:24.132Z,21.18
2023-03-15T16:16:51.036Z,21.77
2023-03-15T16:19:17.751Z,21.08
2023-03-15T16:21:47.928Z,20.01
2023-03-15T16:24:19.540Z,22.21
2023-03-15T16:26:47.743Z,21.44
2023-03-15T16:29:24.278Z,21.02
2023-03-15T16:31:51.367Z,20.71
2023-03-15T16:34:19.465Z,21.13
2023-03-15T16:36:49.810Z,22.17
2023-03-15T16:39:18.518Z,22.72
2023-03-15T16:41:45.494Z,23.19
2023-03-15T16:44:13.750Z,24.01
2023-03-15T16:46:40.686Z,21.76
2023-03-15T16:49:08.098Z,22.55
2023-03-15T16:51:36.076Z,22.17
2023-03-15T16:54:16.208Z,23.38
2023-03-15T16:56:45.575Z,24.12
2023-03-15T16:59:17.349Z,24.67
2023-03-15T17:01:45.532Z,25.97
2023-03-15T17:04:13.816Z,26.39
2023-03-15T17:06:42.079Z,25.72
2023-03-15T17:09:14.099Z,26.36
2023-03-15T17:11:43.085Z,28.67
2023-03-15T17:14:19.603Z,30.49
2023-03-15T17:16:46.486Z,30.71
2023-03-15T17:19:15.134Z,28.98
2023-03-15T17:21:43.125Z,28.82
2023-03-15T17:24:11.251Z,28.85
2023-03-15T17:26:40.152Z,30.01
2023-03-15T17:29:07.514Z,31.19
2023-03-15T17:31:35.948Z,30.69
2023-03-15T17:34:03.540Z,30.47
2023-03-15T17:36:35.124Z,30.97
2023-03-15T17:39:02.873Z,28.82
2023-03-15T17:41:40.020Z,26.98
2023-03-15T17:44:10.702Z,26.98
2023-03-15T17:46:37.588Z,26.39
2023-03-15T17:49:06.383Z,27.21
2023-03-15T17:51:36.541Z,27.81
2023-03-15T17:54:13.825Z,24.84
2023-03-15T17:56:40.957Z,25.13
2023-03-15T17:59:13.466Z,26.18
2023-03-15T18:01:43.553Z,25.11
2023-03-15T18:04:12.383Z,25.41
2023-03-15T18:06:40.364Z,26.22
2023-03-15T18:09:10.979Z,25.93
2023-03-15T18:11:40.290Z,26.62
2023-03-15T18:14:10.729Z,27.05
2023-03-15T18:16:37.681Z,27.35
2023-03-15T18:19:05.127Z,27.65
2023-03-15T18:21:32.444Z,28.46
2023-03-15T18:23:59.841Z,29.53
2023-03-15T18:26:26.847Z,29.04
2023-03-15T18:28:53.732Z,28.84
2023-03-15T18:31:25.899Z,29.20
2023-03-15T18:33:54.999Z,28.15
2023-03-15T18:36:22.446Z,29.04
2023-03-15T18:38:49.837Z,29.66
2023-03-15T18:41:23.601Z,28.95
2023-03-15T18:43:51.708Z,28.25
2023-03-15T18:46:25.768Z,29.08
2023-03-15T18:48:53.598Z,28.83
2023-03-15T18:51:23.282Z,29.15
2023-03-15T18:53:50.194Z,28.85
2023-03-15T18:56:22.891Z,28.92
2023-03-15T18:58:51.118Z,29.28
2023-03-15T19:01:20.167Z,29.63
2023-03-15T19:03:47.647Z,30.11
2023-03-15T19:06:15.314Z,29.88
2023-03-15T19:08:43.117Z,29.92
2023-03-15T19:11:13.009Z,29.48
2023-03-15T19:13:40.482Z,29.78
2023-03-15T19:16:08.071Z,30.79
2023-03-15T19:18:35.201Z,31.00
2023-03-15T19:21:02.726Z,30.41
2023-03-15T19:23:30.138Z,30.99
2023-03-15T19:25:57.127Z,31.68
2023-03-15T19:28:23.964Z,32.61
2023-03-15T19:30:51.268Z,33.63
2023-03-15T19:33:18.523Z,33.22
2023-03-15T19:35:46.744Z,33.87
2023-03-15T19:38:14.825Z,34.84
2023-03-15T19:40:41.995Z,34.37
2023-03-15T19:43:10.390Z,37.10
2023-03-15T19:45:37.457Z,37.42
2023-03-15T19:48:04.612Z,37.20
2023-03-15T19:50:34.065Z,38.76
2023-03-15T19:53:01.161Z,39.69
2023-03-15T19:55:31.485Z,39.10
2023-03-15T19:57:58.837Z,37.82
2023-03-15T20:00:26.238Z,38.51
2023-03-15T20:02:53.857Z,40.60
2023-03-15T20:05:22.381Z,43.73
2023-03-15T20:07:51.413Z,42.48
2023-03-15T20:10:19.615Z,42.67
2023-03-15T20:12:47.531Z,40.09
2023-03-15T20:15:22.901Z,40.77
2023-03-15T20:17:50.161Z,41.85
2023-03-15T20:20:17.650Z,43.62
2023-03-15T20:22:46.228Z,45.97
2023-03-15T20:25:16.497Z,42.93
2023-03-15T20:27:44.937Z,43.89
2023-03-15T20:30:14.229Z,44.05
2023-03-15T20:32:42.508Z,44.67
2023-03-15T20:35:12.050Z,46.30
2023-03-15T20:37:41.862Z,46.60
2023-03-15T20:40:13.094Z,47.26
2023-03-15T20:42:41.595Z,48.11
2023-03-15T20:45:12.655Z,48.64
2023-03-15T20:47:41.469Z,49.81
2023-03-15T20:50:10.673Z,50.24
2023-03-15T20:52:38.039Z,51.66
2023-03-15T20:55:10.150Z,52.13
2023-03-15T20:57:37.769Z,53.46
2023-03-15T21:00:13.051Z,54.66
2023-03-15T21:02:40.857Z,55.29
2023-03-15T21:05:10.142Z,55.25
2023-03-15T21:07:37.609Z,54.97
2023-03-15T21:10:06.059Z,54.60
2023-03-15T21:12:33.824Z,54.64
2023-03-15T21:15:02.437Z,54.51
2023-03-15T21:17:30.168Z,54.35
2023-03-15T21:19:59.617Z,54.39
2023-03-15T21:22:27.285Z,54.16
2023-03-15T21:24:56.128Z,54.20
2023-03-15T21:27:26.293Z,54.85
2023-03-15T21:29:54.135Z,54.70
2023-03-15T21:32:21.920Z,54.35
2023-03-15T21:34:49.481Z,54.05
2023-03-15T21:37:17.277Z,55.10
2023-03-15T21:39:44.445Z,53.75
2023-03-15T21:42:11.708Z,54.62
2023-03-15T21:44:40.050Z,53.78
2023-03-15T21:47:07.173Z,54.39
2023-03-15T21:49:36.907Z,55.15
2023-03-15T21:52:05.679Z,53.97
2023-03-15T21:54:33.316Z,55.04
2023-03-15T21:57:00.350Z,55.76
2023-03-15T21:59:28.366Z,55.04
2023-03-15T22:01:56.289Z,54.33
2023-03-15T22:04:26.865Z,54.24
2023-03-15T22:06:54.438Z,55.68
2023-03-15T22:09:23.283Z,52.53
2023-03-15T22:11:50.635Z,52.71
2023-03-15T22:14:22.762Z,54.60
2023-03-15T22:16:49.944Z,52.78
2023-03-15T22:19:17.717Z,51.81
2023-03-15T22:21:49.053Z,51.47
2023-03-15T22:24:16.082Z,51.66
2023-03-15T22:26:46.252Z,51.34
2023-03-15T22:29:13.251Z,52.77
2023-03-15T22:31:40.174Z,53.59
2023-03-15T22:34:07.746Z,52.79
2023-03-15T22:36:34.702Z,52.20
2023-03-15T22:39:02.070Z,52.87
2023-03-15T22:41:29.162Z,54.22
2023-03-15T22:43:56.202Z,51.81
2023-03-15T22:46:23.748Z,52.37
2023-03-15T22:48:50.954Z,53.88
2023-03-15T22:51:18.933Z,55.29
2023-03-15T22:53:46.342Z,54.79
2023-03-15T22:56:16.019Z,53.00
2023-03-15T22:58:45.332Z,52.04
2023-03-15T23:01:12.726Z,51.54
2023-03-15T23:03:39.850Z,51.33
2023-03-15T23:06:07.927Z,51.41
2023-03-15T23:08:37.440Z,52.48
2023-03-15T23:11:05.114Z,52.31
2023-03-15T23:13:34.421Z,52.29
2023-03-15T23:16:05.469Z,52.99
2023-03-15T23:18:35.852Z,51.53
2023-03-15T23:21:07.910Z,50.61
2023-03-15T23:23:35.053Z,53.03
2023-03-15T23:26:02.842Z,53.78
2023-03-15T23:28:29.963Z,53.43
2023-03-15T23:31:06.248Z,53.01
2023-03-15T23:33:34.236Z,53.20
2023-03-15T23:36:07.214Z,54.08
2023-03-15T23:38:34.842Z,54.73
2023-03-15T23:41:02.709Z,56.18
2023-03-15T23:43:29.604Z,57.02
2023-03-15T23:45:57.985Z,57.38
2023-03-15T23:48:25.480Z,56.08
2023-03-15T23:50:56.245Z,56.01
2023-03-15T23:53:25.657Z,56.62
2023-03-15T23:55:53.126Z,56.49
2023-03-15T23:58:20.896Z,55.86
